createdAt,value
2022-10-05T00:01:46.034Z,23.52
2022-10-05T00:04:16.572Z,23.51
2022-10-05T00:06:45.519Z,23.53
2022-10-05T00:09:17.922Z,23.51
2022-10-05T00:11:46.330Z,23.51
2022-10-05T00:14:16.886Z,23.51
2022-10-05T00:16:46.986Z,23.51
2022-10-05T00:19:21.421Z,23.50
2022-10-05T00:21:49.758Z,23.52
2022-10-05T00:24:20.581Z,23.50
2022-10-05T00:26:55.407Z,23.50
2022-10-05T00:29:26.043Z,23.50
2022-10-05T00:31:55.886Z,23.50
2022-10-05T00:34:26.682Z,23.49
2022-10-05T00:36:54.923Z,23.48
2022-10-05T00:39:23.185Z,23.47
2022-10-05T00:42:00.581Z,23.47
2022-10-05T00:44:36.550Z,23.47
2022-10-05T00:47:16.035Z,23.47
2022-10-05T00:49:55.506Z,23.47
2022-10-05T00:52:26.495Z,23.46
2022-10-05T00:54:58.798Z,23.45
2022-10-05T00:57:32.816Z,23.47
2022-10-05T01:00:05.366Z,23.46
2022-10-05T01:02:41.316Z,23.45
2022-10-05T01:05:12.368Z,23.45
2022-10-05T01:07:43.797Z,23.46
2022-10-05T01:10:15.940Z,23.46
2022-10-05T01:12:48.622Z,23.44
2022-10-05T01:15:18.149Z,23.45
2022-10-05T01:17:49.866Z,23.45
2022-10-05T01:20:29.209Z,23.47
2022-10-05T01:23:21.154Z,23.47
2022-10-05T01:25:54.272Z,23.46
2022-10-05T01:28:27.545Z,23.47
2022-10-05T01:31:00.673Z,23.46
2022-10-05T01:33:31.964Z,23.47
2022-10-05T01:36:03.021Z,23.45
2022-10-05T01:38:37.584Z,23.44
2022-10-05T01:41:10.071Z,23.47
2022-10-05T01:43:42.446Z,23.45
2022-10-05T01:46:16.149Z,23.44
2022-10-05T01:48:49.216Z,23.44
2022-10-05T01:51:20.475Z,23.44
2022-10-05T01:53:55.010Z,23.46
2022-10-05T01:56:26.646Z,23.44
2022-10-05T01:59:00.514Z,23.44
2022-10-05T02:01:31.652Z,23.44
2022-10-05T02:04:04.245Z,23.45
2022-10-05T02:06:33.959Z,23.45
2022-10-05T02:09:04.189Z,23.44
2022-10-05T02:11:32.394Z,23.44
2022-10-05T02:14:03.130Z,23.43
2022-10-05T02:16:34.329Z,23.42
2022-10-05T02:19:04.197Z,23.41
2022-10-05T02:21:32.415Z,23.42
2022-10-05T02:24:02.677Z,23.41
2022-10-05T02:26:30.992Z,23.41
2022-10-05T02:29:00.429Z,23.40
2022-10-05T02:31:33.532Z,23.41
2022-10-05T02:34:27.497Z,23.42
2022-10-05T02:37:13.850Z,23.40
2022-10-05T02:39:49.014Z,23.41
2022-10-05T02:42:20.522Z,23.40
2022-10-05T02:44:52.579Z,23.38
2022-10-05T02:47:25.060Z,23.38
2022-10-05T02:49:55.145Z,23.37
2022-10-05T02:52:26.634Z,23.38
2022-10-05T02:55:00.172Z,23.39
2022-10-05T02:57:29.918Z,23.38
2022-10-05T03:00:01.761Z,23.37
2022-10-05T03:02:35.110Z,23.38
2022-10-05T03:05:07.874Z,23.38
2022-10-05T03:07:40.235Z,23.38
2022-10-05T03:10:11.138Z,23.38
2022-10-05T03:12:46.656Z,23.38
2022-10-05T03:15:21.801Z,23.37
2022-10-05T03:17:56.323Z,23.37
2022-10-05T03:20:31.551Z,23.37
2022-10-05T03:23:00.866Z,23.38
2022-10-05T03:25:43.903Z,23.35
2022-10-05T03:28:15.948Z,23.36
2022-10-05T03:30:46.958Z,23.36
2022-10-05T03:33:20.502Z,23.37
2022-10-05T03:35:52.690Z,23.36
2022-10-05T03:38:24.898Z,23.35
2022-10-05T03:40:55.511Z,23.36
2022-10-05T03:43:35.717Z,23.33
2022-10-05T03:46:05.854Z,23.35
2022-10-05T03:48:38.873Z,23.34
2022-10-05T03:51:09.329Z,23.35
2022-10-05T03:53:40.955Z,23.36
2022-10-05T03:56:14.908Z,23.36
2022-10-05T03:58:46.433Z,23.34
2022-10-05T04:01:17.130Z,23.35
2022-10-05T04:03:48.484Z,23.35
2022-10-05T04:06:18.290Z,23.35
2022-10-05T04:08:48.756Z,23.35
2022-10-05T04:11:21.857Z,23.34
2022-10-05T04:13:51.870Z,23.35
2022-10-05T04:16:22.584Z,23.35
2022-10-05T04:18:56.497Z,23.35
2022-10-05T04:21:26.358Z,23.36
2022-10-05T04:23:58.986Z,23.36
2022-10-05T04:26:33.467Z,23.38
2022-10-05T04:29:06.252Z,23.36
2022-10-05T04:31:44.970Z,23.36
2022-10-05T04:34:18.795Z,23.38
2022-10-05T04:36:49.643Z,23.37
2022-10-05T04:39:22.031Z,23.38
2022-10-05T04:41:57.302Z,23.37
2022-10-05T04:44:37.244Z,23.38
2022-10-05T04:47:31.181Z,23.38
2022-10-05T04:50:14.317Z,23.39
2022-10-05T04:53:01.742Z,23.39
2022-10-05T04:55:32.667Z,23.40
2022-10-05T04:58:05.218Z,23.40
2022-10-05T05:00:35.352Z,23.39
2022-10-05T05:03:30.533Z,23.41
2022-10-05T05:06:16.806Z,23.42
2022-10-05T05:09:25.700Z,23.42
2022-10-05T05:12:09.235Z,23.43
2022-10-05T05:14:45.775Z,23.43
2022-10-05T05:17:22.403Z,23.44
2022-10-05T05:19:54.412Z,23.43
2022-10-05T05:22:27.092Z,23.46
2022-10-05T05:25:04.826Z,23.45
2022-10-05T05:27:40.726Z,23.46
2022-10-05T05:30:16.999Z,23.46
2022-10-05T05:32:50.064Z,23.47
2022-10-05T05:36:06.019Z,23.49
2022-10-05T05:38:36.810Z,23.49
2022-10-05T05:41:10.344Z,23.49
2022-10-05T05:44:02.906Z,23.50
2022-10-05T05:47:01.598Z,23.51
2022-10-05T05:49:29.275Z,23.52
2022-10-05T05:51:59.329Z,23.55
2022-10-05T05:54:32.859Z,23.57
2022-10-05T05:57:09.113Z,23.58
2022-10-05T05:59:55.942Z,23.59
2022-10-05T06:02:27.143Z,23.60
2022-10-05T06:04:58.012Z,23.60
2022-10-05T06:07:30.746Z,23.60
2022-10-05T06:10:07.118Z,23.62
2022-10-05T06:12:46.853Z,23.62
2022-10-05T06:15:29.612Z,23.63
2022-10-05T06:17:58.965Z,23.66
2022-10-05T06:20:29.766Z,23.67
2022-10-05T06:23:00.195Z,23.67
2022-10-05T06:25:33.318Z,23.67
2022-10-05T06:28:05.263Z,23.68
2022-10-05T06:30:42.756Z,23.69
2022-10-05T06:33:18.045Z,23.69
2022-10-05T06:35:57.490Z,23.71
2022-10-05T06:38:39.765Z,23.71
2022-10-05T06:41:14.786Z,23.72
2022-10-05T06:43:50.335Z,23.73
2022-10-05T06:46:38.903Z,23.73
2022-10-05T06:49:38.290Z,23.74
2022-10-05T06:52:27.782Z,23.75
2022-10-05T06:55:04.173Z,23.75
2022-10-05T06:57:59.331Z,23.77
2022-10-05T07:00:30.246Z,23.78
2022-10-05T07:03:02.063Z,23.69
2022-10-05T07:05:47.913Z,23.56
2022-10-05T07:08:18.826Z,23.58
2022-10-05T07:10:55.230Z,23.62
2022-10-05T07:13:44.229Z,23.65
2022-10-05T07:16:14.982Z,23.69
2022-10-05T07:19:04.871Z,23.67
2022-10-05T07:21:35.829Z,23.65
2022-10-05T07:24:07.582Z,23.67
2022-10-05T07:26:39.186Z,23.70
2022-10-05T07:29:33.915Z,23.74
2022-10-05T07:32:12.170Z,23.54
2022-10-05T07:34:47.647Z,23.37
2022-10-05T07:37:36.170Z,23.38
2022-10-05T07:40:10.361Z,23.46
2022-10-05T07:42:52.130Z,23.52
2022-10-05T07:45:29.522Z,23.56
2022-10-05T07:47:59.449Z,23.60
2022-10-05T07:50:30.443Z,23.62
2022-10-05T07:53:00.676Z,23.64
2022-10-05T07:55:33.258Z,23.65
2022-10-05T07:58:07.267Z,23.67
2022-10-05T08:00:58.222Z,23.65
2022-10-05T08:03:31.632Z,23.36
2022-10-05T08:06:00.307Z,23.11
2022-10-05T08:08:31.189Z,22.87
2022-10-05T08:11:01.805Z,22.83
2022-10-05T08:13:32.408Z,22.85
2022-10-05T08:16:03.640Z,22.86
2022-10-05T08:18:41.447Z,22.87
2022-10-05T08:21:12.175Z,22.85
2022-10-05T08:23:43.460Z,22.81
2022-10-05T08:26:17.809Z,22.79
2022-10-05T08:28:49.274Z,22.73
2022-10-05T08:31:21.968Z,22.75
2022-10-05T08:33:56.248Z,22.83
2022-10-05T08:36:30.519Z,22.95
2022-10-05T08:39:04.370Z,23.02
2022-10-05T08:42:01.199Z,23.07
2022-10-05T08:45:02.067Z,23.13
2022-10-05T08:48:13.336Z,23.16
2022-10-05T08:51:04.359Z,23.19
2022-10-05T08:53:47.152Z,23.20
2022-10-05T08:56:30.562Z,23.24
2022-10-05T08:59:16.869Z,23.27
2022-10-05T09:01:55.656Z,23.30
2022-10-05T09:04:36.147Z,23.32
2022-10-05T09:07:15.630Z,23.34
2022-10-05T09:10:06.321Z,23.37
2022-10-05T09:12:55.006Z,23.33
2022-10-05T09:15:36.063Z,23.26
2022-10-05T09:18:27.615Z,23.21
2022-10-05T09:20:59.251Z,23.13
2022-10-05T09:23:38.386Z,23.20
2022-10-05T09:26:10.040Z,23.25
2022-10-05T09:28:43.474Z,23.30
2022-10-05T09:31:36.907Z,23.32
2022-10-05T09:34:20.174Z,23.33
2022-10-05T09:40:20.243Z,23.37
2022-10-05T09:43:23.923Z,23.38
2022-10-05T09:46:31.518Z,23.39
2022-10-05T09:49:28.734Z,23.40
2022-10-05T09:52:19.177Z,23.43
2022-10-05T09:55:20.238Z,23.43
2022-10-05T09:58:14.459Z,23.45
2022-10-05T10:01:03.636Z,23.47
2022-10-05T10:04:01.519Z,23.47
2022-10-05T10:06:41.872Z,23.49
2022-10-05T10:09:25.543Z,23.51
2022-10-05T10:12:05.787Z,23.51
2022-10-05T10:15:19.199Z,23.53
2022-10-05T10:18:23.703Z,23.55
2022-10-05T10:21:14.546Z,23.56
2022-10-05T10:24:00.464Z,23.57
2022-10-05T10:27:01.779Z,23.60
2022-10-05T10:29:46.087Z,23.63
2022-10-05T10:32:21.558Z,23.63
2022-10-05T10:35:32.803Z,23.65
2022-10-05T10:38:33.535Z,23.67
2022-10-05T10:41:44.425Z,23.69
2022-10-05T10:45:03.452Z,23.69
2022-10-05T10:48:01.489Z,23.72
2022-10-05T10:50:59.767Z,23.71
2022-10-05T10:53:38.222Z,23.71
2022-10-05T10:56:30.892Z,23.72
2022-10-05T10:59:41.744Z,23.73
2022-10-05T11:02:44.105Z,23.76
2022-10-05T11:05:25.678Z,23.78
2022-10-05T11:08:00.541Z,23.79
2022-10-05T11:11:00.015Z,23.79
2022-10-05T11:13:38.367Z,23.79
2022-10-05T11:16:34.275Z,23.80
2022-10-05T11:19:52.615Z,23.82
2022-10-05T11:22:52.544Z,23.83
2022-10-05T11:25:53.463Z,23.82
2022-10-05T11:28:31.762Z,23.82
2022-10-05T11:31:39.908Z,23.84
2022-10-05T11:34:45.701Z,23.83
2022-10-05T11:37:50.475Z,23.84
2022-10-05T11:40:34.655Z,23.84
2022-10-05T11:43:39.458Z,23.86
2022-10-05T11:46:12.482Z,23.87
2022-10-05T11:49:01.738Z,23.86
2022-10-05T11:52:02.727Z,23.87
2022-10-05T11:55:11.315Z,23.88
2022-10-05T11:57:44.174Z,23.88
2022-10-05T12:00:15.514Z,23.87
2022-10-05T12:03:22.641Z,23.87
2022-10-05T12:05:58.254Z,23.88
2022-10-05T12:08:30.980Z,23.89
2022-10-05T12:11:07.960Z,23.88
2022-10-05T12:13:40.804Z,23.89
2022-10-05T12:16:11.766Z,23.91
2022-10-05T12:18:50.008Z,23.90
2022-10-05T12:21:24.323Z,23.90
2022-10-05T12:23:55.113Z,23.90
2022-10-05T12:26:26.457Z,23.89
2022-10-05T12:28:57.133Z,23.89
2022-10-05T12:31:31.035Z,23.89
2022-10-05T12:34:24.607Z,23.89
2022-10-05T12:40:06.393Z,23.82
2022-10-05T12:42:41.601Z,23.81
2022-10-05T12:45:17.902Z,23.78
2022-10-05T12:47:58.554Z,23.77
2022-10-05T12:50:29.174Z,23.77
2022-10-05T12:53:15.931Z,23.78
2022-10-05T12:55:48.023Z,23.79
2022-10-05T12:58:35.934Z,23.77
2022-10-05T13:01:07.828Z,23.76
2022-10-05T13:03:38.507Z,23.74
2022-10-05T13:06:11.757Z,23.71
2022-10-05T13:08:42.901Z,23.67
2022-10-05T13:11:16.296Z,23.64
2022-10-05T13:13:50.074Z,23.64
2022-10-05T13:16:24.460Z,23.65
2022-10-05T13:19:01.400Z,23.67
2022-10-05T13:21:32.458Z,23.68
2022-10-05T13:24:02.765Z,23.69
2022-10-05T13:26:40.805Z,23.69
2022-10-05T13:29:16.523Z,23.70
2022-10-05T13:31:46.961Z,23.71
2022-10-05T13:34:22.414Z,23.71
2022-10-05T13:36:57.903Z,23.73
2022-10-05T13:39:32.059Z,23.73
2022-10-05T13:42:03.073Z,23.71
2022-10-05T13:44:35.335Z,23.72
2022-10-05T13:47:06.310Z,23.73
2022-10-05T13:49:40.639Z,23.73
2022-10-05T13:52:18.118Z,23.74
2022-10-05T13:54:49.150Z,23.73
2022-10-05T13:57:23.460Z,23.73
2022-10-05T13:59:55.430Z,23.72
2022-10-05T14:02:29.102Z,23.72
2022-10-05T14:05:01.556Z,23.73
2022-10-05T14:07:34.410Z,23.74
2022-10-05T14:10:04.670Z,23.72
2022-10-05T14:12:40.210Z,23.73
2022-10-05T14:15:20.988Z,23.72
2022-10-05T14:17:51.544Z,23.72
2022-10-05T14:20:23.167Z,23.73
2022-10-05T14:22:55.769Z,23.73
2022-10-05T14:25:24.375Z,23.73
2022-10-05T14:28:02.037Z,23.72
2022-10-05T14:30:32.559Z,23.72
2022-10-05T14:33:10.195Z,23.72
2022-10-05T14:35:49.171Z,23.71
2022-10-05T14:38:19.859Z,23.71
2022-10-05T14:40:48.182Z,23.70
2022-10-05T14:43:20.316Z,23.70
2022-10-05T14:46:01.456Z,23.69
2022-10-05T14:48:30.919Z,23.68
2022-10-05T14:51:03.418Z,23.67
2022-10-05T14:53:39.619Z,23.65
2022-10-05T14:56:22.074Z,23.67
2022-10-05T14:59:08.979Z,23.64
2022-10-05T15:01:39.366Z,23.63
2022-10-05T15:04:17.009Z,23.63
2022-10-05T15:06:53.298Z,23.63
2022-10-05T15:09:35.035Z,23.62
2022-10-05T15:12:03.757Z,23.60
2022-10-05T15:14:33.132Z,23.59
2022-10-05T15:17:04.530Z,23.57
2022-10-05T15:19:40.230Z,23.56
2022-10-05T15:22:18.885Z,23.55
2022-10-05T15:24:53.343Z,23.54
2022-10-05T15:27:25.396Z,23.55
2022-10-05T15:30:04.187Z,23.54
2022-10-05T15:32:46.208Z,23.55
2022-10-05T15:35:36.899Z,23.53
2022-10-05T15:38:17.905Z,23.53
2022-10-05T15:40:47.986Z,23.53
2022-10-05T15:43:18.935Z,23.51
2022-10-05T15:45:53.912Z,23.51
2022-10-05T15:48:29.256Z,23.49
2022-10-05T15:51:01.732Z,23.49
2022-10-05T15:53:33.485Z,23.50
2022-10-05T15:56:03.927Z,23.49
2022-10-05T15:58:43.607Z,23.48
2022-10-05T16:01:12.624Z,23.48
2022-10-05T16:03:47.501Z,23.48
2022-10-05T16:06:48.683Z,23.47
2022-10-05T16:09:24.733Z,23.48
2022-10-05T16:11:59.226Z,23.47
2022-10-05T16:14:34.611Z,23.46
2022-10-05T16:17:13.762Z,23.47
2022-10-05T16:19:47.088Z,23.47
2022-10-05T16:22:20.866Z,23.47
2022-10-05T16:25:02.790Z,23.47
2022-10-05T16:27:36.619Z,23.48
2022-10-05T16:30:06.182Z,23.47
2022-10-05T16:32:36.924Z,23.46
2022-10-05T16:35:14.697Z,23.47
2022-10-05T16:37:47.359Z,23.46
2022-10-05T16:40:20.708Z,23.47
2022-10-05T16:42:55.580Z,23.46
2022-10-05T16:45:45.136Z,23.47
2022-10-05T16:48:16.807Z,23.47
2022-10-05T16:50:51.638Z,23.47
2022-10-05T16:53:22.290Z,23.46
2022-10-05T16:55:53.083Z,23.46
2022-10-05T16:58:24.023Z,23.46
2022-10-05T17:01:06.635Z,23.47
2022-10-05T17:03:41.649Z,23.47
2022-10-05T17:06:38.492Z,23.47
2022-10-05T17:09:27.592Z,23.47
2022-10-05T17:12:03.315Z,23.46
2022-10-05T17:14:42.106Z,23.47
2022-10-05T17:17:24.586Z,23.47
2022-10-05T17:19:59.271Z,23.47
2022-10-05T17:22:32.307Z,23.47
2022-10-05T17:25:05.204Z,23.48
2022-10-05T17:27:36.073Z,23.48
2022-10-05T17:30:22.779Z,23.47
2022-10-05T17:33:04.725Z,23.49
2022-10-05T17:36:13.721Z,23.49
2022-10-05T17:39:14.818Z,23.48
2022-10-05T17:41:43.626Z,23.47
2022-10-05T17:44:32.973Z,23.47
2022-10-05T17:47:01.576Z,23.48
2022-10-05T17:50:14.353Z,23.49
2022-10-05T17:53:02.393Z,23.49
2022-10-05T17:55:50.917Z,23.49
2022-10-05T17:59:01.835Z,23.50
2022-10-05T18:01:32.833Z,23.51
2022-10-05T18:04:26.665Z,23.51
2022-10-05T18:07:02.691Z,23.51
2022-10-05T18:09:33.357Z,23.51
2022-10-05T18:12:12.431Z,23.51
2022-10-05T18:15:00.120Z,23.52
2022-10-05T18:17:41.262Z,23.53
2022-10-05T18:20:31.662Z,23.53
2022-10-05T18:23:29.604Z,23.53
2022-10-05T18:26:03.251Z,23.51
2022-10-05T18:28:40.908Z,23.51
2022-10-05T18:31:17.447Z,23.51
2022-10-05T18:34:13.556Z,23.53
2022-10-05T18:36:52.784Z,23.53
2022-10-05T18:39:29.788Z,23.53
2022-10-05T18:42:03.648Z,23.54
2022-10-05T18:44:37.810Z,23.54
2022-10-05T18:47:10.516Z,23.56
2022-10-05T18:49:47.351Z,23.54
2022-10-05T18:52:19.358Z,23.55
2022-10-05T18:54:55.030Z,23.54
2022-10-05T18:57:37.167Z,23.56
2022-10-05T19:00:11.307Z,23.54
2022-10-05T19:02:43.182Z,23.56
2022-10-05T19:05:45.813Z,23.56
2022-10-05T19:08:10.719Z,23.57
2022-10-05T19:10:42.770Z,23.57
2022-10-05T19:13:17.526Z,23.58
2022-10-05T19:15:50.947Z,23.56
2022-10-05T19:18:31.996Z,23.56
2022-10-05T19:21:04.063Z,23.58
2022-10-05T19:23:48.325Z,23.59
2022-10-05T19:26:18.129Z,23.59
2022-10-05T19:28:53.331Z,23.56
2022-10-05T19:31:29.729Z,23.58
2022-10-05T19:34:04.332Z,23.55
2022-10-05T19:36:41.535Z,23.56
2022-10-05T19:39:12.190Z,23.56
2022-10-05T19:41:54.919Z,23.55
2022-10-05T19:44:30.887Z,23.55
2022-10-05T19:47:02.766Z,23.55
2022-10-05T19:49:49.204Z,23.54
2022-10-05T19:52:22.834Z,23.56
2022-10-05T19:55:02.292Z,23.54
2022-10-05T19:57:30.967Z,23.55
2022-10-05T20:00:02.775Z,23.55
2022-10-05T20:02:38.659Z,23.53
2022-10-05T20:05:13.720Z,23.52
2022-10-05T20:07:43.466Z,23.52
2022-10-05T20:10:29.264Z,23.52
2022-10-05T20:12:58.524Z,23.51
2022-10-05T20:15:45.229Z,23.47
2022-10-05T20:19:06.198Z,23.48
2022-10-05T20:21:49.009Z,23.45
2022-10-05T20:24:18.463Z,23.45
2022-10-05T20:27:05.328Z,23.45
2022-10-05T20:29:35.700Z,23.47
2022-10-05T20:32:08.324Z,23.46
2022-10-05T20:34:41.479Z,23.45
2022-10-05T20:37:10.706Z,23.42
2022-10-05T20:39:39.202Z,23.46
2022-10-05T20:42:07.981Z,23.46
2022-10-05T20:44:36.854Z,23.44
2022-10-05T20:47:05.741Z,23.43
2022-10-05T20:49:35.355Z,23.42
2022-10-05T20:52:05.115Z,23.44
2022-10-05T20:54:33.742Z,23.44
2022-10-05T20:57:02.495Z,23.44
2022-10-05T20:59:30.833Z,23.42
2022-10-05T21:01:59.422Z,23.40
2022-10-05T21:04:36.083Z,23.42
2022-10-05T21:07:10.471Z,23.40
2022-10-05T21:09:43.653Z,23.39
2022-10-05T21:12:12.147Z,23.37
2022-10-05T21:14:40.735Z,23.37
2022-10-05T21:17:09.710Z,23.36
2022-10-05T21:19:39.759Z,23.33
2022-10-05T21:22:09.944Z,23.34
2022-10-05T21:24:38.696Z,23.34
2022-10-05T21:27:06.996Z,23.32
2022-10-05T21:29:36.606Z,23.32
2022-10-05T21:32:08.662Z,23.32
2022-10-05T21:34:37.071Z,23.30
2022-10-05T21:37:05.467Z,23.30
2022-10-05T21:39:36.830Z,23.31
2022-10-05T21:42:05.617Z,23.29
2022-10-05T21:44:34.009Z,23.28
2022-10-05T21:47:02.531Z,23.28
2022-10-05T21:49:31.317Z,23.27
2022-10-05T21:52:00.175Z,23.28
2022-10-05T21:54:28.768Z,23.26
2022-10-05T21:56:58.554Z,23.26
2022-10-05T21:59:29.098Z,23.24
2022-10-05T22:01:57.772Z,23.25
2022-10-05T22:04:26.392Z,23.26
2022-10-05T22:06:54.975Z,23.24
2022-10-05T22:09:23.666Z,23.24
2022-10-05T22:11:52.231Z,23.25
2022-10-05T22:14:22.027Z,23.23
2022-10-05T22:16:50.466Z,23.21
2022-10-05T22:19:20.227Z,23.21
2022-10-05T22:21:49.536Z,23.20
2022-10-05T22:24:17.880Z,23.22
2022-10-05T22:26:46.688Z,23.21
2022-10-05T22:29:16.077Z,23.18
2022-10-05T22:31:48.490Z,23.19
2022-10-05T22:34:16.991Z,23.21
2022-10-05T22:36:45.978Z,23.21
2022-10-05T22:39:14.480Z,23.20
2022-10-05T22:41:42.891Z,23.20
2022-10-05T22:44:11.207Z,23.20
2022-10-05T22:46:39.804Z,23.20
2022-10-05T22:49:09.543Z,23.19
2022-10-05T22:51:37.860Z,23.17
2022-10-05T22:54:06.523Z,23.19
2022-10-05T22:56:35.042Z,23.18
2022-10-05T22:59:03.286Z,23.20
2022-10-05T23:01:31.661Z,23.19
2022-10-05T23:03:59.972Z,23.16
2022-10-05T23:06:29.743Z,23.15
2022-10-05T23:08:58.278Z,23.15
2022-10-05T23:11:27.431Z,23.14
2022-10-05T23:13:57.058Z,23.15
2022-10-05T23:16:26.956Z,23.13
2022-10-05T23:18:55.607Z,23.14
2022-10-05T23:21:25.127Z,23.15
2022-10-05T23:23:54.825Z,23.15
2022-10-05T23:26:23.741Z,23.13
2022-10-05T23:28:52.183Z,23.13
2022-10-05T23:31:21.347Z,23.13
2022-10-05T23:33:49.679Z,23.13
2022-10-05T23:36:18.945Z,23.13
2022-10-05T23:38:47.245Z,23.13
2022-10-05T23:41:17.311Z,23.12
2022-10-05T23:43:45.612Z,23.13
2022-10-05T23:46:14.453Z,23.12
2022-10-05T23:48:42.978Z,23.13
2022-10-05T23:51:12.841Z,23.10
2022-10-05T23:53:43.947Z,23.11
2022-10-05T23:56:12.367Z,23.10
2022-10-05T23:58:42.193Z,23.12
